sensor_id;sensor_type;location;lat;lon;timestamp;pressure;altitude;pressure_sealevel;temperature
25514;BMP180;48128;54.242;10.280;2023-01-04T00:01:03;101520.00;;;5.50
25514;BMP180;48128;54.242;10.280;2023-01-04T00:03:30;101515.00;;;5.50
25514;BMP180;48128;54.242;10.280;2023-01-04T00:05:59;101509.00;;;5.60
25514;BMP180;48128;54.242;10.280;2023-01-04T00:08:26;101489.00;;;5.60
25514;BMP180;48128;54.242;10.280;2023-01-04T00:13:31;101479.00;;;5.60
25514;BMP180;48128;54.242;10.280;2023-01-04T00:16:03;101476.00;;;5.60
25514;BMP180;48128;54.242;10.280;2023-01-04T00:18:34;101464.00;;;5.60
25514;BMP180;48128;54.242;10.280;2023-01-04T00:21:22;101462.00;;;5.70
25514;BMP180;48128;54.242;10.280;2023-01-04T00:23:51;101457.00;;;5.70
25514;BMP180;48128;54.242;10.280;2023-01-04T00:26:23;101453.00;;;5.70
25514;BMP180;48128;54.242;10.280;2023-01-04T00:28:54;101445.00;;;5.70
25514;BMP180;48128;54.242;10.280;2023-01-04T00:31:21;101459.00;;;5.70
25514;BMP180;48128;54.242;10.280;2023-01-04T00:33:51;101445.00;;;5.70
25514;BMP180;48128;54.242;10.280;2023-01-04T00:36:18;101437.00;;;5.80
25514;BMP180;48128;54.242;10.280;2023-01-04T00:38:45;101425.00;;;5.70
25514;BMP180;48128;54.242;10.280;2023-01-04T00:41:12;101416.00;;;5.80
25514;BMP180;48128;54.242;10.280;2023-01-04T00:43:59;101407.00;;;5.80
25514;BMP180;48128;54.242;10.280;2023-01-04T00:46:30;101401.00;;;5.80
25514;BMP180;48128;54.242;10.280;2023-01-04T00:48:57;101383.00;;;5.80
25514;BMP180;48128;54.242;10.280;2023-01-04T00:51:27;101396.00;;;5.80
25514;BMP180;48128;54.242;10.280;2023-01-04T00:53:54;101388.00;;;5.80
25514;BMP180;48128;54.242;10.280;2023-01-04T00:56:21;101372.00;;;5.80
25514;BMP180;48128;54.242;10.280;2023-01-04T00:58:48;101359.00;;;5.80
25514;BMP180;48128;54.242;10.280;2023-01-04T01:01:15;101343.00;;;5.80
25514;BMP180;48128;54.242;10.280;2023-01-04T01:03:42;101342.00;;;5.80
25514;BMP180;48128;54.242;10.280;2023-01-04T01:06:10;101335.00;;;5.80
25514;BMP180;48128;54.242;10.280;2023-01-04T01:08:38;101319.00;;;5.80
25514;BMP180;48128;54.242;10.280;2023-01-04T01:11:07;101303.00;;;5.80
25514;BMP180;48128;54.242;10.280;2023-01-04T01:13:35;101307.00;;;5.80
25514;BMP180;48128;54.242;10.280;2023-01-04T01:16:07;101302.00;;;5.80
25514;BMP180;48128;54.242;10.280;2023-01-04T01:18:36;101292.00;;;5.80
25514;BMP180;48128;54.242;10.280;2023-01-04T01:21:04;101294.00;;;5.70
25514;BMP180;48128;54.242;10.280;2023-01-04T01:23:31;101276.00;;;5.70
25514;BMP180;48128;54.242;10.280;2023-01-04T01:25:59;101281.00;;;5.70
25514;BMP180;48128;54.242;10.280;2023-01-04T01:28:28;101282.00;;;5.70
25514;BMP180;48128;54.242;10.280;2023-01-04T01:30:55;101274.00;;;5.70
25514;BMP180;48128;54.242;10.280;2023-01-04T01:33:32;101279.00;;;5.70
25514;BMP180;48128;54.242;10.280;2023-01-04T01:36:00;101277.00;;;5.70
25514;BMP180;48128;54.242;10.280;2023-01-04T01:38:27;101274.00;;;5.70
25514;BMP180;48128;54.242;10.280;2023-01-04T01:40:54;101278.00;;;5.70
25514;BMP180;48128;54.242;10.280;2023-01-04T01:43:22;101261.00;;;5.70
25514;BMP180;48128;54.242;10.280;2023-01-04T01:45:53;101257.00;;;5.70
25514;BMP180;48128;54.242;10.280;2023-01-04T01:48:24;101253.00;;;5.80
25514;BMP180;48128;54.242;10.280;2023-01-04T01:50:55;101244.00;;;5.70
25514;BMP180;48128;54.242;10.280;2023-01-04T01:53:23;101250.00;;;5.80
25514;BMP180;48128;54.242;10.280;2023-01-04T01:55:50;101241.00;;;5.80
25514;BMP180;48128;54.242;10.280;2023-01-04T01:58:22;101239.00;;;5.80
25514;BMP180;48128;54.242;10.280;2023-01-04T02:00:50;101236.00;;;5.80
25514;BMP180;48128;54.242;10.280;2023-01-04T02:03:20;101232.00;;;5.80
25514;BMP180;48128;54.242;10.280;2023-01-04T02:05:52;101217.00;;;5.80
25514;BMP180;48128;54.242;10.280;2023-01-04T02:08:21;101212.00;;;5.90
25514;BMP180;48128;54.242;10.280;2023-01-04T02:10:48;101198.00;;;5.90
25514;BMP180;48128;54.242;10.280;2023-01-04T02:13:17;101188.00;;;5.90
25514;BMP180;48128;54.242;10.280;2023-01-04T02:18:47;101166.00;;;5.90
25514;BMP180;48128;54.242;10.280;2023-01-04T02:21:22;101149.00;;;5.90
25514;BMP180;48128;54.242;10.280;2023-01-04T02:24:25;101140.00;;;5.90
25514;BMP180;48128;54.242;10.280;2023-01-04T02:33:04;101112.00;;;5.90
25514;BMP180;48128;54.242;10.280;2023-01-04T02:41:43;101093.00;;;6.00
25514;BMP180;48128;54.242;10.280;2023-01-04T02:44:16;101081.00;;;6.00
25514;BMP180;48128;54.242;10.280;2023-01-04T02:47:08;101084.00;;;6.00
25514;BMP180;48128;54.242;10.280;2023-01-04T02:49:35;101074.00;;;6.00
25514;BMP180;48128;54.242;10.280;2023-01-04T02:52:29;101067.00;;;6.10
25514;BMP180;48128;54.242;10.280;2023-01-04T02:54:56;101050.00;;;6.10
25514;BMP180;48128;54.242;10.280;2023-01-04T03:03:05;101017.00;;;6.10
25514;BMP180;48128;54.242;10.280;2023-01-04T03:05:59;101000.00;;;6.10
25514;BMP180;48128;54.242;10.280;2023-01-04T03:08:56;100982.00;;;6.10
25514;BMP180;48128;54.242;10.280;2023-01-04T03:11:33;100974.00;;;6.10
25514;BMP180;48128;54.242;10.280;2023-01-04T03:14:21;100962.00;;;6.10
25514;BMP180;48128;54.242;10.280;2023-01-04T03:17:00;100942.00;;;6.10
25514;BMP180;48128;54.242;10.280;2023-01-04T03:19:30;100930.00;;;6.20
25514;BMP180;48128;54.242;10.280;2023-01-04T03:22:15;100943.00;;;6.20
25514;BMP180;48128;54.242;10.280;2023-01-04T03:25:02;100917.00;;;6.20
25514;BMP180;48128;54.242;10.280;2023-01-04T03:27:48;100913.00;;;6.20
25514;BMP180;48128;54.242;10.280;2023-01-04T03:30:44;100908.00;;;6.20
25514;BMP180;48128;54.242;10.280;2023-01-04T03:33:30;100909.00;;;6.20
25514;BMP180;48128;54.242;10.280;2023-01-04T03:36:26;100887.00;;;6.20
25514;BMP180;48128;54.242;10.280;2023-01-04T03:41:49;100872.00;;;6.20
25514;BMP180;48128;54.242;10.280;2023-01-04T03:48:10;100862.00;;;6.10
25514;BMP180;48128;54.242;10.280;2023-01-04T03:51:17;100848.00;;;6.20
25514;BMP180;48128;54.242;10.280;2023-01-04T03:56:50;100838.00;;;6.20
25514;BMP180;48128;54.242;10.280;2023-01-04T03:59:17;100843.00;;;6.20
25514;BMP180;48128;54.242;10.280;2023-01-04T04:01:45;100826.00;;;6.20
25514;BMP180;48128;54.242;10.280;2023-01-04T04:04:12;100835.00;;;6.20
25514;BMP180;48128;54.242;10.280;2023-01-04T04:06:57;100826.00;;;6.20
25514;BMP180;48128;54.242;10.280;2023-01-04T04:09:43;100820.00;;;6.20
25514;BMP180;48128;54.242;10.280;2023-01-04T04:12:09;100801.00;;;6.20
25514;BMP180;48128;54.242;10.280;2023-01-04T04:14:36;100813.00;;;6.20
25514;BMP180;48128;54.242;10.280;2023-01-04T04:17:03;100813.00;;;6.20
25514;BMP180;48128;54.242;10.280;2023-01-04T04:19:30;100807.00;;;6.20
25514;BMP180;48128;54.242;10.280;2023-01-04T04:21:56;100809.00;;;6.20
25514;BMP180;48128;54.242;10.280;2023-01-04T04:24:25;100789.00;;;6.20
25514;BMP180;48128;54.242;10.280;2023-01-04T04:26:53;100780.00;;;6.20
25514;BMP180;48128;54.242;10.280;2023-01-04T04:29:28;100782.00;;;6.20
25514;BMP180;48128;54.242;10.280;2023-01-04T04:31:59;100770.00;;;6.20
25514;BMP180;48128;54.242;10.280;2023-01-04T04:34:39;100776.00;;;6.20
25514;BMP180;48128;54.242;10.280;2023-01-04T04:37:11;100784.00;;;6.20
25514;BMP180;48128;54.242;10.280;2023-01-04T04:39:48;100773.00;;;6.20
25514;BMP180;48128;54.242;10.280;2023-01-04T04:42:21;100760.00;;;6.20
25514;BMP180;48128;54.242;10.280;2023-01-04T04:45:00;100746.00;;;6.20
25514;BMP180;48128;54.242;10.280;2023-01-04T04:47:34;100764.00;;;6.20
25514;BMP180;48128;54.242;10.280;2023-01-04T04:50:07;100745.00;;;6.20
25514;BMP180;48128;54.242;10.280;2023-01-04T04:52:40;100769.00;;;6.20
25514;BMP180;48128;54.242;10.280;2023-01-04T04:55:07;100734.00;;;6.20
25514;BMP180;48128;54.242;10.280;2023-01-04T04:57:47;100727.00;;;6.20
25514;BMP180;48128;54.242;10.280;2023-01-04T05:00:17;100701.00;;;6.20
25514;BMP180;48128;54.242;10.280;2023-01-04T05:02:43;100717.00;;;6.20
25514;BMP180;48128;54.242;10.280;2023-01-04T05:05:10;100718.00;;;6.20
25514;BMP180;48128;54.242;10.280;2023-01-04T05:07:38;100690.00;;;6.20
25514;BMP180;48128;54.242;10.280;2023-01-04T05:10:07;100698.00;;;6.20
25514;BMP180;48128;54.242;10.280;2023-01-04T05:12:38;100692.00;;;6.20
25514;BMP180;48128;54.242;10.280;2023-01-04T05:15:38;100675.00;;;6.20
25514;BMP180;48128;54.242;10.280;2023-01-04T05:18:06;100672.00;;;6.30
25514;BMP180;48128;54.242;10.280;2023-01-04T05:20:33;100671.00;;;6.30
25514;BMP180;48128;54.242;10.280;2023-01-04T05:23:04;100657.00;;;6.30
25514;BMP180;48128;54.242;10.280;2023-01-04T05:25:35;100632.00;;;6.30
25514;BMP180;48128;54.242;10.280;2023-01-04T05:28:02;100644.00;;;6.30
25514;BMP180;48128;54.242;10.280;2023-01-04T05:30:29;100647.00;;;6.30
25514;BMP180;48128;54.242;10.280;2023-01-04T05:33:14;100618.00;;;6.30
25514;BMP180;48128;54.242;10.280;2023-01-04T05:35:44;100615.00;;;6.30
25514;BMP180;48128;54.242;10.280;2023-01-04T05:38:11;100604.00;;;6.30
25514;BMP180;48128;54.242;10.280;2023-01-04T05:40:38;100601.00;;;6.30
25514;BMP180;48128;54.242;10.280;2023-01-04T05:43:05;100603.00;;;6.30
25514;BMP180;48128;54.242;10.280;2023-01-04T05:45:32;100587.00;;;6.30
25514;BMP180;48128;54.242;10.280;2023-01-04T05:47:59;100586.00;;;6.30
25514;BMP180;48128;54.242;10.280;2023-01-04T05:50:26;100576.00;;;6.30
25514;BMP180;48128;54.242;10.280;2023-01-04T05:52:53;100554.00;;;6.30
25514;BMP180;48128;54.242;10.280;2023-01-04T05:55:19;100568.00;;;6.30
25514;BMP180;48128;54.242;10.280;2023-01-04T05:57:46;100564.00;;;6.30
25514;BMP180;48128;54.242;10.280;2023-01-04T06:00:13;100550.00;;;6.30
25514;BMP180;48128;54.242;10.280;2023-01-04T06:02:42;100547.00;;;6.30
25514;BMP180;48128;54.242;10.280;2023-01-04T06:05:09;100545.00;;;6.30
25514;BMP180;48128;54.242;10.280;2023-01-04T06:07:37;100520.00;;;6.30
25514;BMP180;48128;54.242;10.280;2023-01-04T06:10:08;100517.00;;;6.40
25514;BMP180;48128;54.242;10.280;2023-01-04T06:12:36;100506.00;;;6.40
25514;BMP180;48128;54.242;10.280;2023-01-04T06:15:03;100517.00;;;6.40
25514;BMP180;48128;54.242;10.280;2023-01-04T06:17:30;100518.00;;;6.40
25514;BMP180;48128;54.242;10.280;2023-01-04T06:19:57;100508.00;;;6.40
25514;BMP180;48128;54.242;10.280;2023-01-04T06:22:24;100518.00;;;6.40
25514;BMP180;48128;54.242;10.280;2023-01-04T06:24:52;100499.00;;;6.40
25514;BMP180;48128;54.242;10.280;2023-01-04T06:27:19;100478.00;;;6.40
25514;BMP180;48128;54.242;10.280;2023-01-04T06:29:46;100496.00;;;6.50
25514;BMP180;48128;54.242;10.280;2023-01-04T06:32:13;100508.00;;;6.50
25514;BMP180;48128;54.242;10.280;2023-01-04T06:34:40;100476.00;;;6.50
25514;BMP180;48128;54.242;10.280;2023-01-04T06:37:06;100468.00;;;6.50
25514;BMP180;48128;54.242;10.280;2023-01-04T06:39:33;100460.00;;;6.50
25514;BMP180;48128;54.242;10.280;2023-01-04T06:42:00;100468.00;;;6.60
25514;BMP180;48128;54.242;10.280;2023-01-04T06:44:32;100444.00;;;6.60
25514;BMP180;48128;54.242;10.280;2023-01-04T06:46:59;100434.00;;;6.60
25514;BMP180;48128;54.242;10.280;2023-01-04T06:49:26;100428.00;;;6.60
25514;BMP180;48128;54.242;10.280;2023-01-04T06:51:53;100414.00;;;6.70
25514;BMP180;48128;54.242;10.280;2023-01-04T06:54:19;100415.00;;;6.70
25514;BMP180;48128;54.242;10.280;2023-01-04T06:56:46;100400.00;;;6.70
25514;BMP180;48128;54.242;10.280;2023-01-04T06:59:13;100408.00;;;6.70
25514;BMP180;48128;54.242;10.280;2023-01-04T07:01:40;100410.00;;;6.70
25514;BMP180;48128;54.242;10.280;2023-01-04T07:04:07;100410.00;;;6.70
25514;BMP180;48128;54.242;10.280;2023-01-04T07:06:34;100373.00;;;6.70
25514;BMP180;48128;54.242;10.280;2023-01-04T07:09:02;100384.00;;;6.80
25514;BMP180;48128;54.242;10.280;2023-01-04T07:11:28;100377.00;;;6.80
25514;BMP180;48128;54.242;10.280;2023-01-04T07:13:55;100384.00;;;6.80
25514;BMP180;48128;54.242;10.280;2023-01-04T07:16:22;100370.00;;;6.90
25514;BMP180;48128;54.242;10.280;2023-01-04T07:18:52;100367.00;;;6.90
25514;BMP180;48128;54.242;10.280;2023-01-04T07:21:18;100360.00;;;6.90
25514;BMP180;48128;54.242;10.280;2023-01-04T07:23:45;100357.00;;;6.90
25514;BMP180;48128;54.242;10.280;2023-01-04T07:26:13;100360.00;;;6.90
25514;BMP180;48128;54.242;10.280;2023-01-04T07:28:39;100342.00;;;7.00
25514;BMP180;48128;54.242;10.280;2023-01-04T07:31:27;100345.00;;;7.00
25514;BMP180;48128;54.242;10.280;2023-01-04T07:33:54;100341.00;;;7.00
25514;BMP180;48128;54.242;10.280;2023-01-04T07:36:21;100334.00;;;7.00
25514;BMP180;48128;54.242;10.280;2023-01-04T07:38:48;100314.00;;;7.00
25514;BMP180;48128;54.242;10.280;2023-01-04T07:41:15;100321.00;;;7.10
25514;BMP180;48128;54.242;10.280;2023-01-04T07:43:41;100317.00;;;7.10
25514;BMP180;48128;54.242;10.280;2023-01-04T07:46:08;100318.00;;;7.10
25514;BMP180;48128;54.242;10.280;2023-01-04T07:48:35;100306.00;;;7.10
25514;BMP180;48128;54.242;10.280;2023-01-04T07:51:02;100307.00;;;7.20
25514;BMP180;48128;54.242;10.280;2023-01-04T07:53:31;100280.00;;;7.20
25514;BMP180;48128;54.242;10.280;2023-01-04T07:55:58;100299.00;;;7.20
25514;BMP180;48128;54.242;10.280;2023-01-04T07:58:29;100294.00;;;7.20
25514;BMP180;48128;54.242;10.280;2023-01-04T08:01:04;100288.00;;;7.30
25514;BMP180;48128;54.242;10.280;2023-01-04T08:03:31;100296.00;;;7.30
25514;BMP180;48128;54.242;10.280;2023-01-04T08:06:02;100293.00;;;7.40
25514;BMP180;48128;54.242;10.280;2023-01-04T08:08:29;100290.00;;;7.40
25514;BMP180;48128;54.242;10.280;2023-01-04T08:11:00;100282.00;;;7.50
25514;BMP180;48128;54.242;10.280;2023-01-04T08:13:27;100284.00;;;7.50
25514;BMP180;48128;54.242;10.280;2023-01-04T08:15:54;100269.00;;;7.50
25514;BMP180;48128;54.242;10.280;2023-01-04T08:18:21;100285.00;;;7.60
25514;BMP180;48128;54.242;10.280;2023-01-04T08:20:48;100285.00;;;7.70
25514;BMP180;48128;54.242;10.280;2023-01-04T08:23:23;100274.00;;;7.70
25514;BMP180;48128;54.242;10.280;2023-01-04T08:25:50;100264.00;;;7.70
25514;BMP180;48128;54.242;10.280;2023-01-04T08:28:17;100288.00;;;7.80
25514;BMP180;48128;54.242;10.280;2023-01-04T08:30:44;100282.00;;;7.90
25514;BMP180;48128;54.242;10.280;2023-01-04T08:33:14;100280.00;;;7.90
25514;BMP180;48128;54.242;10.280;2023-01-04T08:35:41;100289.00;;;7.90
25514;BMP180;48128;54.242;10.280;2023-01-04T08:38:08;100276.00;;;8.00
25514;BMP180;48128;54.242;10.280;2023-01-04T08:40:54;100262.00;;;8.00
25514;BMP180;48128;54.242;10.280;2023-01-04T08:43:27;100260.00;;;8.10
25514;BMP180;48128;54.242;10.280;2023-01-04T08:45:54;100247.00;;;8.10
25514;BMP180;48128;54.242;10.280;2023-01-04T08:48:21;100239.00;;;8.20
25514;BMP180;48128;54.242;10.280;2023-01-04T08:50:50;100238.00;;;8.20
25514;BMP180;48128;54.242;10.280;2023-01-04T08:53:17;100241.00;;;8.30
25514;BMP180;48128;54.242;10.280;2023-01-04T08:55:51;100231.00;;;8.30
25514;BMP180;48128;54.242;10.280;2023-01-04T08:58:18;100237.00;;;8.40
25514;BMP180;48128;54.242;10.280;2023-01-04T09:00:45;100225.00;;;8.40
25514;BMP180;48128;54.242;10.280;2023-01-04T09:03:12;100227.00;;;8.40
25514;BMP180;48128;54.242;10.280;2023-01-04T09:05:39;100204.00;;;8.50
25514;BMP180;48128;54.242;10.280;2023-01-04T09:08:06;100219.00;;;8.50
25514;BMP180;48128;54.242;10.280;2023-01-04T09:10:36;100207.00;;;8.50
25514;BMP180;48128;54.242;10.280;2023-01-04T09:13:04;100207.00;;;8.60
25514;BMP180;48128;54.242;10.280;2023-01-04T09:15:32;100207.00;;;8.60
25514;BMP180;48128;54.242;10.280;2023-01-04T09:17:59;100204.00;;;8.70
25514;BMP180;48128;54.242;10.280;2023-01-04T09:20:45;100203.00;;;8.70
25514;BMP180;48128;54.242;10.280;2023-01-04T09:23:12;100198.00;;;8.80
25514;BMP180;48128;54.242;10.280;2023-01-04T09:25:39;100192.00;;;8.80
25514;BMP180;48128;54.242;10.280;2023-01-04T09:28:06;100194.00;;;8.80
25514;BMP180;48128;54.242;10.280;2023-01-04T09:30:32;100185.00;;;8.90
25514;BMP180;48128;54.242;10.280;2023-01-04T09:32:59;100182.00;;;8.90
25514;BMP180;48128;54.242;10.280;2023-01-04T09:35:26;100180.00;;;8.90
25514;BMP180;48128;54.242;10.280;2023-01-04T09:37:54;100187.00;;;9.00
25514;BMP180;48128;54.242;10.280;2023-01-04T09:40:23;100177.00;;;9.00
25514;BMP180;48128;54.242;10.280;2023-01-04T09:42:53;100187.00;;;9.00
25514;BMP180;48128;54.242;10.280;2023-01-04T09:45:40;100186.00;;;9.00
25514;BMP180;48128;54.242;10.280;2023-01-04T09:48:10;100178.00;;;9.10
25514;BMP180;48128;54.242;10.280;2023-01-04T09:50:44;100184.00;;;9.10
25514;BMP180;48128;54.242;10.280;2023-01-04T09:53:23;100180.00;;;9.20
25514;BMP180;48128;54.242;10.280;2023-01-04T09:55:53;100178.00;;;9.20
25514;BMP180;48128;54.242;10.280;2023-01-04T09:58:31;100175.00;;;9.20
25514;BMP180;48128;54.242;10.280;2023-01-04T10:03:57;100175.00;;;9.30
25514;BMP180;48128;54.242;10.280;2023-01-04T10:06:25;100171.00;;;9.30
25514;BMP180;48128;54.242;10.280;2023-01-04T10:09:01;100165.00;;;9.30
25514;BMP180;48128;54.242;10.280;2023-01-04T10:15:17;100148.00;;;9.40
25514;BMP180;48128;54.242;10.280;2023-01-04T10:26:11;100148.00;;;9.50
25514;BMP180;48128;54.242;10.280;2023-01-04T10:34:41;100140.00;;;9.50
25514;BMP180;48128;54.242;10.280;2023-01-04T10:39:40;100118.00;;;9.60
25514;BMP180;48128;54.242;10.280;2023-01-04T10:42:33;100119.00;;;9.70
25514;BMP180;48128;54.242;10.280;2023-01-04T10:48:17;100123.00;;;9.70
25514;BMP180;48128;54.242;10.280;2023-01-04T10:50:59;100114.00;;;9.80
25514;BMP180;48128;54.242;10.280;2023-01-04T10:53:59;100115.00;;;9.80
25514;BMP180;48128;54.242;10.280;2023-01-04T11:05:21;100098.00;;;9.80
25514;BMP180;48128;54.242;10.280;2023-01-04T11:07:56;100098.00;;;9.90
25514;BMP180;48128;54.242;10.280;2023-01-04T11:10:27;100084.00;;;9.90
25514;BMP180;48128;54.242;10.280;2023-01-04T11:12:57;100088.00;;;9.90
25514;BMP180;48128;54.242;10.280;2023-01-04T11:15:24;100083.00;;;10.00
25514;BMP180;48128;54.242;10.280;2023-01-04T11:17:50;100084.00;;;10.00
25514;BMP180;48128;54.242;10.280;2023-01-04T11:20:17;100082.00;;;10.00
25514;BMP180;48128;54.242;10.280;2023-01-04T11:23:14;100080.00;;;10.00
25514;BMP180;48128;54.242;10.280;2023-01-04T11:28:50;100075.00;;;10.00
25514;BMP180;48128;54.242;10.280;2023-01-04T11:31:30;100074.00;;;10.10
25514;BMP180;48128;54.242;10.280;2023-01-04T11:34:01;100074.00;;;10.00
25514;BMP180;48128;54.242;10.280;2023-01-04T11:36:35;100077.00;;;10.00
25514;BMP180;48128;54.242;10.280;2023-01-04T11:39:17;100051.00;;;10.10
25514;BMP180;48128;54.242;10.280;2023-01-04T11:41:57;100049.00;;;10.10
25514;BMP180;48128;54.242;10.280;2023-01-04T11:44:34;100048.00;;;10.20
25514;BMP180;48128;54.242;10.280;2023-01-04T11:47:18;100047.00;;;10.20
25514;BMP180;48128;54.242;10.280;2023-01-04T11:49:45;100043.00;;;10.20
25514;BMP180;48128;54.242;10.280;2023-01-04T11:52:34;100050.00;;;10.30
25514;BMP180;48128;54.242;10.280;2023-01-04T11:55:23;100032.00;;;10.30
25514;BMP180;48128;54.242;10.280;2023-01-04T11:58:14;100028.00;;;10.30
25514;BMP180;48128;54.242;10.280;2023-01-04T12:00:53;100033.00;;;10.30
25514;BMP180;48128;54.242;10.280;2023-01-04T12:03:30;100013.00;;;10.30
25514;BMP180;48128;54.242;10.280;2023-01-04T12:05:58;100015.00;;;10.30
25514;BMP180;48128;54.242;10.280;2023-01-04T12:10:51;100009.00;;;10.30
25514;BMP180;48128;54.242;10.280;2023-01-04T12:13:18;100003.00;;;10.30
25514;BMP180;48128;54.242;10.280;2023-01-04T12:16:04;100017.00;;;10.30
25514;BMP180;48128;54.242;10.280;2023-01-04T12:18:41;100002.00;;;10.40
25514;BMP180;48128;54.242;10.280;2023-01-04T12:21:18;100013.00;;;10.40
25514;BMP180;48128;54.242;10.280;2023-01-04T12:23:45;100008.00;;;10.40
25514;BMP180;48128;54.242;10.280;2023-01-04T12:26:13;100002.00;;;10.40
25514;BMP180;48128;54.242;10.280;2023-01-04T12:31:37;100000.00;;;10.40
25514;BMP180;48128;54.242;10.280;2023-01-04T12:36:58;99994.00;;;10.50
25514;BMP180;48128;54.242;10.280;2023-01-04T12:39:44;100000.00;;;10.50
25514;BMP180;48128;54.242;10.280;2023-01-04T12:42:17;99995.00;;;10.50
25514;BMP180;48128;54.242;10.280;2023-01-04T12:50:11;100001.00;;;10.50
25514;BMP180;48128;54.242;10.280;2023-01-04T12:52:46;100007.00;;;10.40
25514;BMP180;48128;54.242;10.280;2023-01-04T13:01:25;100012.00;;;10.40
25514;BMP180;48128;54.242;10.280;2023-01-04T13:03:55;100018.00;;;10.40
25514;BMP180;48128;54.242;10.280;2023-01-04T13:06:32;100018.00;;;10.40
25514;BMP180;48128;54.242;10.280;2023-01-04T13:09:00;100009.00;;;10.40
25514;BMP180;48128;54.242;10.280;2023-01-04T13:11:42;100024.00;;;10.50
25514;BMP180;48128;54.242;10.280;2023-01-04T13:14:42;100021.00;;;10.50
25514;BMP180;48128;54.242;10.280;2023-01-04T13:17:20;100015.00;;;10.50
25514;BMP180;48128;54.242;10.280;2023-01-04T13:19:48;100015.00;;;10.50
25514;BMP180;48128;54.242;10.280;2023-01-04T13:22:20;100002.00;;;10.50
25514;BMP180;48128;54.242;10.280;2023-01-04T13:24:55;100016.00;;;10.50
25514;BMP180;48128;54.242;10.280;2023-01-04T13:27:23;100016.00;;;10.50
25514;BMP180;48128;54.242;10.280;2023-01-04T13:29:51;99991.00;;;10.60
25514;BMP180;48128;54.242;10.280;2023-01-04T13:32:28;100013.00;;;10.60
25514;BMP180;48128;54.242;10.280;2023-01-04T13:35:12;99998.00;;;10.60
25514;BMP180;48128;54.242;10.280;2023-01-04T13:37:45;99990.00;;;10.70
25514;BMP180;48128;54.242;10.280;2023-01-04T13:43:18;99986.00;;;10.70
25514;BMP180;48128;54.242;10.280;2023-01-04T13:46:05;99990.00;;;10.70
25514;BMP180;48128;54.242;10.280;2023-01-04T13:48:38;99974.00;;;10.70
25514;BMP180;48128;54.242;10.280;2023-01-04T13:51:26;99961.00;;;10.70
25514;BMP180;48128;54.242;10.280;2023-01-04T13:54:19;99961.00;;;10.70
25514;BMP180;48128;54.242;10.280;2023-01-04T13:56:46;99960.00;;;10.60
25514;BMP180;48128;54.242;10.280;2023-01-04T13:59:21;99955.00;;;10.70
25514;BMP180;48128;54.242;10.280;2023-01-04T14:01:47;99966.00;;;10.70
25514;BMP180;48128;54.242;10.280;2023-01-04T14:04:23;99942.00;;;10.70
25514;BMP180;48128;54.242;10.280;2023-01-04T14:06:51;99950.00;;;10.70
25514;BMP180;48128;54.242;10.280;2023-01-04T14:09:23;99957.00;;;10.60
25514;BMP180;48128;54.242;10.280;2023-01-04T14:11:55;99938.00;;;10.60
25514;BMP180;48128;54.242;10.280;2023-01-04T14:14:44;99950.00;;;10.60
25514;BMP180;48128;54.242;10.280;2023-01-04T14:17:58;99951.00;;;10.60
25514;BMP180;48128;54.242;10.280;2023-01-04T14:30:53;99931.00;;;10.50
25514;BMP180;48128;54.242;10.280;2023-01-04T14:33:26;99943.00;;;10.50
25514;BMP180;48128;54.242;10.280;2023-01-04T14:41:32;99951.00;;;10.40
25514;BMP180;48128;54.242;10.280;2023-01-04T14:46:28;99927.00;;;10.40
25514;BMP180;48128;54.242;10.280;2023-01-04T14:48:55;99939.00;;;10.40
25514;BMP180;48128;54.242;10.280;2023-01-04T14:51:27;99918.00;;;10.40
25514;BMP180;48128;54.242;10.280;2023-01-04T14:53:58;99921.00;;;10.40
25514;BMP180;48128;54.242;10.280;2023-01-04T14:56:24;99924.00;;;10.40
25514;BMP180;48128;54.242;10.280;2023-01-04T14:58:51;99918.00;;;10.40
25514;BMP180;48128;54.242;10.280;2023-01-04T15:01:18;99932.00;;;10.30
25514;BMP180;48128;54.242;10.280;2023-01-04T15:03:45;99945.00;;;10.30
25514;BMP180;48128;54.242;10.280;2023-01-04T15:06:11;99936.00;;;10.30
25514;BMP180;48128;54.242;10.280;2023-01-04T15:08:38;99942.00;;;10.30
25514;BMP180;48128;54.242;10.280;2023-01-04T15:11:05;99908.00;;;10.30
25514;BMP180;48128;54.242;10.280;2023-01-04T15:13:31;99917.00;;;10.30
25514;BMP180;48128;54.242;10.280;2023-01-04T15:16:06;99929.00;;;10.30
25514;BMP180;48128;54.242;10.280;2023-01-04T15:18:35;99915.00;;;10.20
25514;BMP180;48128;54.242;10.280;2023-01-04T15:21:02;99920.00;;;10.10
25514;BMP180;48128;54.242;10.280;2023-01-04T15:23:29;99910.00;;;10.10
25514;BMP180;48128;54.242;10.280;2023-01-04T15:25:56;99906.00;;;10.00
25514;BMP180;48128;54.242;10.280;2023-01-04T15:28:23;99910.00;;;10.00
25514;BMP180;48128;54.242;10.280;2023-01-04T15:30:51;99919.00;;;10.00
25514;BMP180;48128;54.242;10.280;2023-01-04T15:33:18;99902.00;;;10.00
25514;BMP180;48128;54.242;10.280;2023-01-04T15:35:45;99892.00;;;9.90
25514;BMP180;48128;54.242;10.280;2023-01-04T15:38:13;99905.00;;;9.90
25514;BMP180;48128;54.242;10.280;2023-01-04T15:40:44;99901.00;;;9.90
25514;BMP180;48128;54.242;10.280;2023-01-04T15:43:10;99894.00;;;9.90
25514;BMP180;48128;54.242;10.280;2023-01-04T15:45:38;99905.00;;;9.90
25514;BMP180;48128;54.242;10.280;2023-01-04T15:48:06;99909.00;;;10.00
25514;BMP180;48128;54.242;10.280;2023-01-04T15:50:35;99913.00;;;10.00
25514;BMP180;48128;54.242;10.280;2023-01-04T15:53:03;99899.00;;;10.00
25514;BMP180;48128;54.242;10.280;2023-01-04T15:55:31;99902.00;;;10.00
25514;BMP180;48128;54.242;10.280;2023-01-04T15:58:03;99901.00;;;10.00
25514;BMP180;48128;54.242;10.280;2023-01-04T16:00:29;99887.00;;;10.00
25514;BMP180;48128;54.242;10.280;2023-01-04T16:02:57;99895.00;;;10.00
25514;BMP180;48128;54.242;10.280;2023-01-04T16:05:24;99896.00;;;10.00
25514;BMP180;48128;54.242;10.280;2023-01-04T16:07:51;99896.00;;;10.00
25514;BMP180;48128;54.242;10.280;2023-01-04T16:10:17;99892.00;;;10.00
25514;BMP180;48128;54.242;10.280;2023-01-04T16:12:44;99888.00;;;10.00